sensor_id;sensor_type;location;lat;lon;timestamp;P1;durP1;ratioP1;P2;durP2;ratioP2
73841;SDS011;62184;52.006;5.924;2022-11-04T00:00:20;15.90;;;7.97;;
73841;SDS011;62184;52.006;5.924;2022-11-04T00:02:47;16.70;;;8.80;;
73841;SDS011;62184;52.006;5.924;2022-11-04T00:05:13;18.85;;;9.05;;
73841;SDS011;62184;52.006;5.924;2022-11-04T00:07:40;16.48;;;9.60;;
73841;SDS011;62184;52.006;5.924;2022-11-04T00:10:06;17.05;;;8.55;;
73841;SDS011;62184;52.006;5.924;2022-11-04T00:12:33;14.90;;;8.52;;
73841;SDS011;62184;52.006;5.924;2022-11-04T00:15:00;17.40;;;9.13;;
73841;SDS011;62184;52.006;5.924;2022-11-04T00:17:29;19.73;;;9.77;;
73841;SDS011;62184;52.006;5.924;2022-11-04T00:19:55;18.65;;;9.73;;
73841;SDS011;62184;52.006;5.924;2022-11-04T00:22:21;18.42;;;9.68;;
73841;SDS011;62184;52.006;5.924;2022-11-04T00:24:48;18.95;;;9.75;;
73841;SDS011;62184;52.006;5.924;2022-11-04T00:27:15;19.58;;;10.25;;
73841;SDS011;62184;52.006;5.924;2022-11-04T00:29:43;21.45;;;10.75;;
73841;SDS011;62184;52.006;5.924;2022-11-04T00:32:10;22.48;;;10.70;;
73841;SDS011;62184;52.006;5.924;2022-11-04T00:34:39;22.98;;;11.40;;
73841;SDS011;62184;52.006;5.924;2022-11-04T00:37:05;23.50;;;11.60;;
73841;SDS011;62184;52.006;5.924;2022-11-04T00:39:32;29.75;;;13.38;;
73841;SDS011;62184;52.006;5.924;2022-11-04T00:41:58;29.13;;;12.65;;
73841;SDS011;62184;52.006;5.924;2022-11-04T00:44:24;29.38;;;14.05;;
73841;SDS011;62184;52.006;5.924;2022-11-04T00:46:51;31.42;;;14.82;;
73841;SDS011;62184;52.006;5.924;2022-11-04T00:49:17;32.30;;;16.17;;
73841;SDS011;62184;52.006;5.924;2022-11-04T00:51:46;34.58;;;16.88;;
73841;SDS011;62184;52.006;5.924;2022-11-04T00:54:13;33.20;;;16.98;;
73841;SDS011;62184;52.006;5.924;2022-11-04T00:56:39;29.80;;;16.13;;
73841;SDS011;62184;52.006;5.924;2022-11-04T00:59:06;27.33;;;15.17;;
73841;SDS011;62184;52.006;5.924;2022-11-04T01:01:33;27.58;;;14.32;;
73841;SDS011;62184;52.006;5.924;2022-11-04T01:03:59;22.27;;;12.80;;
73841;SDS011;62184;52.006;5.924;2022-11-04T01:06:26;17.98;;;10.20;;
73841;SDS011;62184;52.006;5.924;2022-11-04T01:08:56;16.13;;;9.40;;
73841;SDS011;62184;52.006;5.924;2022-11-04T01:11:25;13.60;;;7.60;;
73841;SDS011;62184;52.006;5.924;2022-11-04T01:13:52;11.82;;;6.55;;
73841;SDS011;62184;52.006;5.924;2022-11-04T01:16:18;9.98;;;5.90;;
73841;SDS011;62184;52.006;5.924;2022-11-04T01:18:46;9.95;;;5.35;;
73841;SDS011;62184;52.006;5.924;2022-11-04T01:21:13;9.00;;;4.90;;
73841;SDS011;62184;52.006;5.924;2022-11-04T01:23:42;7.78;;;4.60;;
73841;SDS011;62184;52.006;5.924;2022-11-04T01:26:13;7.37;;;4.00;;
73841;SDS011;62184;52.006;5.924;2022-11-04T01:28:43;6.85;;;3.60;;
73841;SDS011;62184;52.006;5.924;2022-11-04T01:31:12;6.75;;;3.50;;
73841;SDS011;62184;52.006;5.924;2022-11-04T01:33:40;6.78;;;3.03;;
73841;SDS011;62184;52.006;5.924;2022-11-04T01:36:07;6.75;;;3.10;;
73841;SDS011;62184;52.006;5.924;2022-11-04T01:38:36;5.53;;;2.83;;
73841;SDS011;62184;52.006;5.924;2022-11-04T01:41:02;5.40;;;2.42;;
73841;SDS011;62184;52.006;5.924;2022-11-04T01:43:45;5.47;;;2.38;;
73841;SDS011;62184;52.006;5.924;2022-11-04T01:46:19;5.53;;;2.60;;
73841;SDS011;62184;52.006;5.924;2022-11-04T01:48:55;5.55;;;2.65;;
73841;SDS011;62184;52.006;5.924;2022-11-04T01:51:28;6.03;;;3.17;;
73841;SDS011;62184;52.006;5.924;2022-11-04T01:54:02;7.53;;;3.35;;
73841;SDS011;62184;52.006;5.924;2022-11-04T01:56:33;7.45;;;3.70;;
73841;SDS011;62184;52.006;5.924;2022-11-04T01:59:03;7.13;;;4.00;;
73841;SDS011;62184;52.006;5.924;2022-11-04T02:01:38;9.45;;;4.80;;
73841;SDS011;62184;52.006;5.924;2022-11-04T02:04:05;9.63;;;4.90;;
73841;SDS011;62184;52.006;5.924;2022-11-04T02:06:31;11.10;;;5.10;;
73841;SDS011;62184;52.006;5.924;2022-11-04T02:08:58;12.05;;;6.15;;
73841;SDS011;62184;52.006;5.924;2022-11-04T02:11:24;13.40;;;6.90;;
73841;SDS011;62184;52.006;5.924;2022-11-04T02:13:51;14.52;;;8.18;;
73841;SDS011;62184;52.006;5.924;2022-11-04T02:16:21;15.85;;;8.85;;
73841;SDS011;62184;52.006;5.924;2022-11-04T02:19:00;18.85;;;10.73;;
73841;SDS011;62184;52.006;5.924;2022-11-04T02:22:03;19.98;;;10.77;;
73841;SDS011;62184;52.006;5.924;2022-11-04T02:25:02;21.83;;;12.67;;
73841;SDS011;62184;52.006;5.924;2022-11-04T02:27:57;26.13;;;13.73;;
73841;SDS011;62184;52.006;5.924;2022-11-04T02:30:53;25.88;;;14.38;;
73841;SDS011;62184;52.006;5.924;2022-11-04T02:33:29;28.90;;;15.63;;
73841;SDS011;62184;52.006;5.924;2022-11-04T02:36:06;31.88;;;16.42;;
73841;SDS011;62184;52.006;5.924;2022-11-04T02:38:49;31.45;;;16.95;;
73841;SDS011;62184;52.006;5.924;2022-11-04T02:41:25;32.65;;;17.13;;
73841;SDS011;62184;52.006;5.924;2022-11-04T02:44:08;35.80;;;18.20;;
73841;SDS011;62184;52.006;5.924;2022-11-04T02:46:48;34.33;;;18.10;;
73841;SDS011;62184;52.006;5.924;2022-11-04T02:49:21;36.03;;;19.55;;
73841;SDS011;62184;52.006;5.924;2022-11-04T02:51:55;39.10;;;20.48;;
73841;SDS011;62184;52.006;5.924;2022-11-04T02:54:30;38.75;;;20.73;;
73841;SDS011;62184;52.006;5.924;2022-11-04T02:57:05;39.92;;;21.95;;
73841;SDS011;62184;52.006;5.924;2022-11-04T02:59:38;38.97;;;21.90;;
73841;SDS011;62184;52.006;5.924;2022-11-04T03:02:15;44.05;;;23.33;;
73841;SDS011;62184;52.006;5.924;2022-11-04T03:04:51;40.65;;;21.75;;
73841;SDS011;62184;52.006;5.924;2022-11-04T03:07:23;43.75;;;22.75;;
73841;SDS011;62184;52.006;5.924;2022-11-04T03:09:57;47.78;;;23.42;;
73841;SDS011;62184;52.006;5.924;2022-11-04T03:12:31;51.88;;;23.45;;
73841;SDS011;62184;52.006;5.924;2022-11-04T03:15:08;49.50;;;23.40;;
73841;SDS011;62184;52.006;5.924;2022-11-04T03:17:52;47.92;;;24.35;;
73841;SDS011;62184;52.006;5.924;2022-11-04T03:20:29;49.33;;;23.70;;
73841;SDS011;62184;52.006;5.924;2022-11-04T03:22:56;44.90;;;23.90;;
73841;SDS011;62184;52.006;5.924;2022-11-04T03:25:25;45.67;;;23.73;;
73841;SDS011;62184;52.006;5.924;2022-11-04T03:27:59;43.10;;;24.33;;
73841;SDS011;62184;52.006;5.924;2022-11-04T03:30:36;42.42;;;23.83;;
73841;SDS011;62184;52.006;5.924;2022-11-04T03:33:11;44.65;;;24.60;;
73841;SDS011;62184;52.006;5.924;2022-11-04T03:35:49;42.45;;;23.20;;
73841;SDS011;62184;52.006;5.924;2022-11-04T03:38:16;42.70;;;24.00;;
73841;SDS011;62184;52.006;5.924;2022-11-04T03:40:42;41.00;;;23.90;;
73841;SDS011;62184;52.006;5.924;2022-11-04T03:43:09;45.38;;;23.70;;
73841;SDS011;62184;52.006;5.924;2022-11-04T03:45:41;41.13;;;22.83;;
73841;SDS011;62184;52.006;5.924;2022-11-04T03:48:11;41.53;;;23.05;;
73841;SDS011;62184;52.006;5.924;2022-11-04T03:50:39;37.97;;;21.80;;
73841;SDS011;62184;52.006;5.924;2022-11-04T03:53:07;40.53;;;22.38;;
73841;SDS011;62184;52.006;5.924;2022-11-04T03:55:40;38.90;;;21.33;;
73841;SDS011;62184;52.006;5.924;2022-11-04T03:58:26;37.95;;;21.55;;
73841;SDS011;62184;52.006;5.924;2022-11-04T04:01:09;37.37;;;21.30;;
73841;SDS011;62184;52.006;5.924;2022-11-04T04:04:07;36.07;;;19.40;;
73841;SDS011;62184;52.006;5.924;2022-11-04T04:06:44;34.25;;;19.83;;
73841;SDS011;62184;52.006;5.924;2022-11-04T04:09:12;35.63;;;19.67;;
73841;SDS011;62184;52.006;5.924;2022-11-04T04:11:49;33.45;;;19.23;;
73841;SDS011;62184;52.006;5.924;2022-11-04T04:14:24;35.67;;;19.75;;
73841;SDS011;62184;52.006;5.924;2022-11-04T04:16:59;36.20;;;19.65;;
73841;SDS011;62184;52.006;5.924;2022-11-04T04:19:35;35.33;;;19.38;;
73841;SDS011;62184;52.006;5.924;2022-11-04T04:22:03;35.15;;;18.35;;
73841;SDS011;62184;52.006;5.924;2022-11-04T04:24:38;33.85;;;18.63;;
73841;SDS011;62184;52.006;5.924;2022-11-04T04:27:11;35.63;;;17.88;;
73841;SDS011;62184;52.006;5.924;2022-11-04T04:29:39;32.95;;;17.65;;
73841;SDS011;62184;52.006;5.924;2022-11-04T04:32:10;33.15;;;17.65;;
73841;SDS011;62184;52.006;5.924;2022-11-04T04:34:41;33.07;;;17.80;;
73841;SDS011;62184;52.006;5.924;2022-11-04T04:37:10;34.63;;;17.45;;
73841;SDS011;62184;52.006;5.924;2022-11-04T04:39:44;34.80;;;17.77;;
73841;SDS011;62184;52.006;5.924;2022-11-04T04:42:16;37.05;;;18.27;;
73841;SDS011;62184;52.006;5.924;2022-11-04T04:44:44;35.03;;;18.25;;
73841;SDS011;62184;52.006;5.924;2022-11-04T04:47:11;33.05;;;17.42;;
73841;SDS011;62184;52.006;5.924;2022-11-04T04:49:53;31.80;;;15.57;;
73841;SDS011;62184;52.006;5.924;2022-11-04T04:52:22;27.67;;;14.38;;
73841;SDS011;62184;52.006;5.924;2022-11-04T04:54:52;25.38;;;12.63;;
73841;SDS011;62184;52.006;5.924;2022-11-04T04:57:18;22.38;;;11.30;;
73841;SDS011;62184;52.006;5.924;2022-11-04T04:59:45;20.42;;;10.68;;
73841;SDS011;62184;52.006;5.924;2022-11-04T05:02:11;21.05;;;10.10;;
73841;SDS011;62184;52.006;5.924;2022-11-04T05:04:38;24.37;;;11.30;;
73841;SDS011;62184;52.006;5.924;2022-11-04T05:07:07;19.03;;;10.00;;
73841;SDS011;62184;52.006;5.924;2022-11-04T05:09:33;23.02;;;10.25;;
73841;SDS011;62184;52.006;5.924;2022-11-04T05:12:00;24.63;;;10.43;;
73841;SDS011;62184;52.006;5.924;2022-11-04T05:14:27;29.48;;;10.55;;
73841;SDS011;62184;52.006;5.924;2022-11-04T05:16:53;28.33;;;10.65;;
73841;SDS011;62184;52.006;5.924;2022-11-04T05:19:20;31.67;;;11.77;;
73841;SDS011;62184;52.006;5.924;2022-11-04T05:21:46;30.83;;;11.50;;
73841;SDS011;62184;52.006;5.924;2022-11-04T05:24:15;32.15;;;10.93;;
73841;SDS011;62184;52.006;5.924;2022-11-04T05:26:41;34.10;;;11.52;;
73841;SDS011;62184;52.006;5.924;2022-11-04T05:29:08;35.22;;;11.48;;
73841;SDS011;62184;52.006;5.924;2022-11-04T05:31:35;34.33;;;11.97;;
73841;SDS011;62184;52.006;5.924;2022-11-04T05:34:01;35.75;;;11.48;;
73841;SDS011;62184;52.006;5.924;2022-11-04T05:36:28;36.20;;;11.70;;
73841;SDS011;62184;52.006;5.924;2022-11-04T05:38:54;37.97;;;11.60;;
73841;SDS011;62184;52.006;5.924;2022-11-04T05:41:23;35.65;;;11.60;;
73841;SDS011;62184;52.006;5.924;2022-11-04T05:43:50;42.03;;;11.98;;
73841;SDS011;62184;52.006;5.924;2022-11-04T05:46:16;40.42;;;12.30;;
73841;SDS011;62184;52.006;5.924;2022-11-04T05:48:43;34.15;;;11.38;;
73841;SDS011;62184;52.006;5.924;2022-11-04T05:51:11;32.90;;;10.85;;
73841;SDS011;62184;52.006;5.924;2022-11-04T05:53:38;30.92;;;9.65;;
73841;SDS011;62184;52.006;5.924;2022-11-04T05:56:05;30.85;;;10.00;;
73841;SDS011;62184;52.006;5.924;2022-11-04T05:58:35;26.75;;;9.32;;
73841;SDS011;62184;52.006;5.924;2022-11-04T06:01:11;30.33;;;9.88;;
73841;SDS011;62184;52.006;5.924;2022-11-04T06:03:47;28.37;;;9.43;;
73841;SDS011;62184;52.006;5.924;2022-11-04T06:06:14;29.70;;;9.63;;
73841;SDS011;62184;52.006;5.924;2022-11-04T06:08:40;27.63;;;9.18;;
73841;SDS011;62184;52.006;5.924;2022-11-04T06:11:07;30.25;;;9.50;;
73841;SDS011;62184;52.006;5.924;2022-11-04T06:13:36;31.73;;;9.43;;
73841;SDS011;62184;52.006;5.924;2022-11-04T06:16:02;30.67;;;9.75;;
73841;SDS011;62184;52.006;5.924;2022-11-04T06:18:29;30.13;;;9.70;;
73841;SDS011;62184;52.006;5.924;2022-11-04T06:21:05;30.17;;;9.68;;
73841;SDS011;62184;52.006;5.924;2022-11-04T06:23:44;27.92;;;9.05;;
73841;SDS011;62184;52.006;5.924;2022-11-04T06:26:11;31.10;;;8.90;;
73841;SDS011;62184;52.006;5.924;2022-11-04T06:28:40;26.70;;;8.80;;
73841;SDS011;62184;52.006;5.924;2022-11-04T06:31:08;25.40;;;8.40;;
73841;SDS011;62184;52.006;5.924;2022-11-04T06:33:37;25.55;;;7.88;;
73841;SDS011;62184;52.006;5.924;2022-11-04T06:36:05;25.40;;;7.93;;
73841;SDS011;62184;52.006;5.924;2022-11-04T06:38:34;25.45;;;8.20;;
73841;SDS011;62184;52.006;5.924;2022-11-04T06:41:01;25.00;;;7.93;;
73841;SDS011;62184;52.006;5.924;2022-11-04T06:43:28;27.52;;;8.55;;
73841;SDS011;62184;52.006;5.924;2022-11-04T06:45:58;28.10;;;8.60;;
73841;SDS011;62184;52.006;5.924;2022-11-04T06:48:27;26.63;;;8.40;;
73841;SDS011;62184;52.006;5.924;2022-11-04T06:50:55;27.40;;;8.25;;
73841;SDS011;62184;52.006;5.924;2022-11-04T06:53:22;25.80;;;8.53;;
73841;SDS011;62184;52.006;5.924;2022-11-04T06:55:49;24.27;;;8.15;;
73841;SDS011;62184;52.006;5.924;2022-11-04T06:58:17;25.98;;;8.05;;
73841;SDS011;62184;52.006;5.924;2022-11-04T07:00:43;23.63;;;7.63;;
73841;SDS011;62184;52.006;5.924;2022-11-04T07:03:19;23.52;;;7.80;;
73841;SDS011;62184;52.006;5.924;2022-11-04T07:05:45;25.92;;;8.00;;
73841;SDS011;62184;52.006;5.924;2022-11-04T07:08:12;24.27;;;8.00;;
73841;SDS011;62184;52.006;5.924;2022-11-04T07:10:38;25.17;;;7.78;;
73841;SDS011;62184;52.006;5.924;2022-11-04T07:13:05;25.97;;;7.93;;
73841;SDS011;62184;52.006;5.924;2022-11-04T07:15:31;25.33;;;8.10;;
73841;SDS011;62184;52.006;5.924;2022-11-04T07:17:57;24.50;;;8.13;;
73841;SDS011;62184;52.006;5.924;2022-11-04T07:20:27;25.00;;;8.40;;
73841;SDS011;62184;52.006;5.924;2022-11-04T07:22:53;25.00;;;8.27;;
73841;SDS011;62184;52.006;5.924;2022-11-04T07:25:20;23.80;;;8.25;;
73841;SDS011;62184;52.006;5.924;2022-11-04T07:27:46;27.35;;;8.45;;
73841;SDS011;62184;52.006;5.924;2022-11-04T07:30:13;27.02;;;8.82;;
73841;SDS011;62184;52.006;5.924;2022-11-04T07:32:39;29.25;;;9.18;;
73841;SDS011;62184;52.006;5.924;2022-11-04T07:35:06;27.02;;;8.95;;
73841;SDS011;62184;52.006;5.924;2022-11-04T07:37:36;26.65;;;8.70;;
73841;SDS011;62184;52.006;5.924;2022-11-04T07:40:03;25.00;;;8.37;;
73841;SDS011;62184;52.006;5.924;2022-11-04T07:42:31;25.90;;;8.73;;
73841;SDS011;62184;52.006;5.924;2022-11-04T07:44:57;25.08;;;8.15;;
73841;SDS011;62184;52.006;5.924;2022-11-04T07:47:23;27.50;;;8.38;;
73841;SDS011;62184;52.006;5.924;2022-11-04T07:49:50;24.63;;;8.18;;
73841;SDS011;62184;52.006;5.924;2022-11-04T07:52:16;25.77;;;8.82;;
73841;SDS011;62184;52.006;5.924;2022-11-04T07:54:45;27.90;;;9.32;;
73841;SDS011;62184;52.006;5.924;2022-11-04T07:57:11;27.30;;;9.50;;
73841;SDS011;62184;52.006;5.924;2022-11-04T07:59:38;23.77;;;8.93;;
73841;SDS011;62184;52.006;5.924;2022-11-04T08:02:04;27.25;;;8.90;;
73841;SDS011;62184;52.006;5.924;2022-11-04T08:04:31;27.80;;;9.30;;
73841;SDS011;62184;52.006;5.924;2022-11-04T08:06:57;27.37;;;9.57;;
73841;SDS011;62184;52.006;5.924;2022-11-04T08:09:24;27.07;;;10.27;;
73841;SDS011;62184;52.006;5.924;2022-11-04T08:11:53;26.63;;;9.45;;
73841;SDS011;62184;52.006;5.924;2022-11-04T08:14:19;27.27;;;9.57;;
73841;SDS011;62184;52.006;5.924;2022-11-04T08:16:48;23.20;;;8.80;;
73841;SDS011;62184;52.006;5.924;2022-11-04T08:19:15;22.98;;;8.23;;
73841;SDS011;62184;52.006;5.924;2022-11-04T08:21:41;24.00;;;8.90;;
73841;SDS011;62184;52.006;5.924;2022-11-04T08:24:08;22.10;;;8.63;;
73841;SDS011;62184;52.006;5.924;2022-11-04T08:26:34;21.95;;;8.45;;
73841;SDS011;62184;52.006;5.924;2022-11-04T08:29:04;20.17;;;8.60;;
73841;SDS011;62184;52.006;5.924;2022-11-04T08:31:31;19.80;;;8.65;;
73841;SDS011;62184;52.006;5.924;2022-11-04T08:33:58;20.83;;;8.20;;
73841;SDS011;62184;52.006;5.924;2022-11-04T08:36:25;20.98;;;7.70;;
73841;SDS011;62184;52.006;5.924;2022-11-04T08:38:54;16.40;;;6.97;;
73841;SDS011;62184;52.006;5.924;2022-11-04T08:41:22;17.57;;;7.00;;
73841;SDS011;62184;52.006;5.924;2022-11-04T08:43:51;15.48;;;6.63;;
73841;SDS011;62184;52.006;5.924;2022-11-04T08:46:20;15.77;;;7.10;;
73841;SDS011;62184;52.006;5.924;2022-11-04T08:48:47;16.35;;;7.10;;
73841;SDS011;62184;52.006;5.924;2022-11-04T08:51:15;17.50;;;7.18;;
73841;SDS011;62184;52.006;5.924;2022-11-04T08:53:44;18.52;;;7.25;;
73841;SDS011;62184;52.006;5.924;2022-11-04T08:56:11;15.93;;;6.80;;
73841;SDS011;62184;52.006;5.924;2022-11-04T08:58:42;15.48;;;6.75;;
73841;SDS011;62184;52.006;5.924;2022-11-04T09:01:09;14.00;;;7.03;;
73841;SDS011;62184;52.006;5.924;2022-11-04T09:03:39;17.17;;;7.75;;
73841;SDS011;62184;52.006;5.924;2022-11-04T09:06:07;18.00;;;8.00;;
73841;SDS011;62184;52.006;5.924;2022-11-04T09:08:36;17.10;;;8.27;;
73841;SDS011;62184;52.006;5.924;2022-11-04T09:11:04;19.33;;;8.75;;
73841;SDS011;62184;52.006;5.924;2022-11-04T09:13:32;19.50;;;9.45;;
73841;SDS011;62184;52.006;5.924;2022-11-04T09:15:59;18.67;;;9.32;;
73841;SDS011;62184;52.006;5.924;2022-11-04T09:18:25;16.98;;;9.15;;
73841;SDS011;62184;52.006;5.924;2022-11-04T09:20:54;19.15;;;9.15;;
73841;SDS011;62184;52.006;5.924;2022-11-04T09:23:23;17.80;;;8.63;;
73841;SDS011;62184;52.006;5.924;2022-11-04T09:25:50;19.13;;;9.65;;
73841;SDS011;62184;52.006;5.924;2022-11-04T09:28:17;20.02;;;9.38;;
73841;SDS011;62184;52.006;5.924;2022-11-04T09:30:43;17.00;;;9.40;;
73841;SDS011;62184;52.006;5.924;2022-11-04T09:33:09;19.60;;;9.70;;
73841;SDS011;62184;52.006;5.924;2022-11-04T09:35:36;19.63;;;10.13;;
73841;SDS011;62184;52.006;5.924;2022-11-04T09:38:05;16.43;;;9.90;;
73841;SDS011;62184;52.006;5.924;2022-11-04T09:40:32;18.13;;;10.45;;
73841;SDS011;62184;52.006;5.924;2022-11-04T09:43:13;22.30;;;11.88;;
73841;SDS011;62184;52.006;5.924;2022-11-04T09:45:59;21.70;;;11.63;;
73841;SDS011;62184;52.006;5.924;2022-11-04T09:48:29;20.00;;;11.15;;
73841;SDS011;62184;52.006;5.924;2022-11-04T09:51:03;18.00;;;11.05;;
73841;SDS011;62184;52.006;5.924;2022-11-04T09:53:37;18.55;;;10.32;;
73841;SDS011;62184;52.006;5.924;2022-11-04T09:56:12;18.08;;;10.18;;
73841;SDS011;62184;52.006;5.924;2022-11-04T09:58:45;19.35;;;10.48;;
73841;SDS011;62184;52.006;5.924;2022-11-04T10:01:14;17.80;;;10.57;;
73841;SDS011;62184;52.006;5.924;2022-11-04T10:03:53;18.27;;;10.40;;
73841;SDS011;62184;52.006;5.924;2022-11-04T10:06:43;22.75;;;11.45;;
73841;SDS011;62184;52.006;5.924;2022-11-04T10:09:36;16.58;;;11.02;;
73841;SDS011;62184;52.006;5.924;2022-11-04T10:12:20;17.75;;;10.68;;
73841;SDS011;62184;52.006;5.924;2022-11-04T10:15:28;19.88;;;11.20;;
73841;SDS011;62184;52.006;5.924;2022-11-04T10:18:17;16.60;;;10.50;;
73841;SDS011;62184;52.006;5.924;2022-11-04T10:21:03;18.08;;;10.80;;
73841;SDS011;62184;52.006;5.924;2022-11-04T10:23:49;17.67;;;11.60;;
73841;SDS011;62184;52.006;5.924;2022-11-04T10:26:35;20.10;;;11.82;;
73841;SDS011;62184;52.006;5.924;2022-11-04T10:29:10;18.97;;;12.47;;
73841;SDS011;62184;52.006;5.924;2022-11-04T10:31:51;19.80;;;12.10;;
73841;SDS011;62184;52.006;5.924;2022-11-04T10:34:26;20.50;;;12.30;;
73841;SDS011;62184;52.006;5.924;2022-11-04T10:37:01;21.08;;;12.95;;
73841;SDS011;62184;52.006;5.924;2022-11-04T10:39:29;21.95;;;12.70;;
73841;SDS011;62184;52.006;5.924;2022-11-04T10:42:05;20.65;;;12.77;;
73841;SDS011;62184;52.006;5.924;2022-11-04T10:44:32;20.75;;;12.93;;
73841;SDS011;62184;52.006;5.924;2022-11-04T10:47:03;20.57;;;13.27;;
73841;SDS011;62184;52.006;5.924;2022-11-04T10:49:47;21.75;;;13.18;;
73841;SDS011;62184;52.006;5.924;2022-11-04T10:52:26;20.67;;;13.32;;
73841;SDS011;62184;52.006;5.924;2022-11-04T10:54:53;20.02;;;13.48;;
73841;SDS011;62184;52.006;5.924;2022-11-04T10:57:22;22.48;;;13.05;;
73841;SDS011;62184;52.006;5.924;2022-11-04T10:59:51;20.80;;;14.00;;
73841;SDS011;62184;52.006;5.924;2022-11-04T11:05:11;20.55;;;13.27;;
73841;SDS011;62184;52.006;5.924;2022-11-04T11:07:49;19.90;;;12.45;;
73841;SDS011;62184;52.006;5.924;2022-11-04T11:10:19;20.30;;;13.43;;
73841;SDS011;62184;52.006;5.924;2022-11-04T11:12:52;22.08;;;13.65;;
73841;SDS011;62184;52.006;5.924;2022-11-04T11:15:26;20.63;;;13.82;;
73841;SDS011;62184;52.006;5.924;2022-11-04T11:17:59;20.83;;;13.20;;
73841;SDS011;62184;52.006;5.924;2022-11-04T11:20:40;20.08;;;13.85;;
73841;SDS011;62184;52.006;5.924;2022-11-04T11:26:07;21.13;;;13.60;;
73841;SDS011;62184;52.006;5.924;2022-11-04T11:28:40;20.30;;;13.70;;
73841;SDS011;62184;52.006;5.924;2022-11-04T11:31:13;23.48;;;14.52;;
73841;SDS011;62184;52.006;5.924;2022-11-04T11:33:47;22.52;;;13.57;;
73841;SDS011;62184;52.006;5.924;2022-11-04T11:36:18;22.52;;;13.50;;
73841;SDS011;62184;52.006;5.924;2022-11-04T11:38:50;21.92;;;14.40;;
73841;SDS011;62184;52.006;5.924;2022-11-04T11:41:22;19.80;;;14.07;;
73841;SDS011;62184;52.006;5.924;2022-11-04T11:43:53;23.10;;;13.90;;
73841;SDS011;62184;52.006;5.924;2022-11-04T11:46:22;21.77;;;14.73;;
73841;SDS011;62184;52.006;5.924;2022-11-04T11:48:53;21.02;;;13.18;;
73841;SDS011;62184;52.006;5.924;2022-11-04T11:51:22;19.95;;;13.57;;
73841;SDS011;62184;52.006;5.924;2022-11-04T11:54:04;20.97;;;13.13;;
73841;SDS011;62184;52.006;5.924;2022-11-04T11:56:41;17.87;;;12.70;;
73841;SDS011;62184;52.006;5.924;2022-11-04T11:59:18;19.03;;;13.67;;
73841;SDS011;62184;52.006;5.924;2022-11-04T12:01:59;22.15;;;14.10;;
73841;SDS011;62184;52.006;5.924;2022-11-04T12:04:49;19.13;;;13.30;;
73841;SDS011;62184;52.006;5.924;2022-11-04T12:07:19;19.67;;;13.50;;
73841;SDS011;62184;52.006;5.924;2022-11-04T12:09:59;18.23;;;12.95;;
73841;SDS011;62184;52.006;5.924;2022-11-04T12:12:43;19.52;;;12.77;;
73841;SDS011;62184;52.006;5.924;2022-11-04T12:15:28;18.70;;;13.35;;
73841;SDS011;62184;52.006;5.924;2022-11-04T12:18:17;16.97;;;12.77;;
73841;SDS011;62184;52.006;5.924;2022-11-04T12:21:08;19.60;;;12.95;;
73841;SDS011;62184;52.006;5.924;2022-11-04T12:23:41;20.77;;;13.40;;
73841;SDS011;62184;52.006;5.924;2022-11-04T12:26:21;18.17;;;12.75;;
73841;SDS011;62184;52.006;5.924;2022-11-04T12:29:04;18.85;;;12.90;;
73841;SDS011;62184;52.006;5.924;2022-11-04T12:32:02;19.60;;;12.27;;
73841;SDS011;62184;52.006;5.924;2022-11-04T12:34:48;16.48;;;11.88;;
73841;SDS011;62184;52.006;5.924;2022-11-04T12:37:35;18.05;;;12.90;;
73841;SDS011;62184;52.006;5.924;2022-11-04T12:40:17;20.40;;;12.80;;
73841;SDS011;62184;52.006;5.924;2022-11-04T12:42:53;19.10;;;13.35;;
73841;SDS011;62184;52.006;5.924;2022-11-04T12:45:43;17.80;;;13.23;;
73841;SDS011;62184;52.006;5.924;2022-11-04T12:48:40;18.38;;;13.40;;
73841;SDS011;62184;52.006;5.924;2022-11-04T12:51:34;22.10;;;14.03;;
73841;SDS011;62184;52.006;5.924;2022-11-04T12:54:16;21.95;;;13.70;;
73841;SDS011;62184;52.006;5.924;2022-11-04T12:57:07;19.33;;;13.10;;
73841;SDS011;62184;52.006;5.924;2022-11-04T12:59:58;18.47;;;13.20;;
73841;SDS011;62184;52.006;5.924;2022-11-04T13:02:37;19.97;;;13.40;;
73841;SDS011;62184;52.006;5.924;2022-11-04T13:05:22;20.75;;;13.07;;
73841;SDS011;62184;52.006;5.924;2022-11-04T13:08:02;18.67;;;13.52;;
73841;SDS011;62184;52.006;5.924;2022-11-04T13:10:41;19.30;;;12.80;;
73841;SDS011;62184;52.006;5.924;2022-11-04T13:13:17;19.38;;;12.93;;
73841;SDS011;62184;52.006;5.924;2022-11-04T13:15:53;20.30;;;13.48;;
73841;SDS011;62184;52.006;5.924;2022-11-04T13:18:24;20.13;;;13.43;;
73841;SDS011;62184;52.006;5.924;2022-11-04T13:21:02;19.60;;;13.40;;
73841;SDS011;62184;52.006;5.924;2022-11-04T13:23:33;22.10;;;14.20;;
73841;SDS011;62184;52.006;5.924;2022-11-04T13:26:08;20.55;;;13.23;;
73841;SDS011;62184;52.006;5.924;2022-11-04T13:28:40;21.30;;;13.85;;
73841;SDS011;62184;52.006;5.924;2022-11-04T13:31:14;20.75;;;14.10;;
73841;SDS011;62184;52.006;5.924;2022-11-04T13:33:54;19.02;;;14.00;;
73841;SDS011;62184;52.006;5.924;2022-11-04T13:36:35;20.05;;;14.23;;
73841;SDS011;62184;52.006;5.924;2022-11-04T13:39:12;21.60;;;13.98;;
73841;SDS011;62184;52.006;5.924;2022-11-04T13:41:57;19.63;;;13.82;;
73841;SDS011;62184;52.006;5.924;2022-11-04T13:44:44;19.58;;;13.35;;
73841;SDS011;62184;52.006;5.924;2022-11-04T13:47:16;20.10;;;13.00;;
73841;SDS011;62184;52.006;5.924;2022-11-04T13:49:48;20.77;;;12.93;;
73841;SDS011;62184;52.006;5.924;2022-11-04T13:52:19;18.30;;;12.48;;
73841;SDS011;62184;52.006;5.924;2022-11-04T13:54:51;21.02;;;13.20;;
73841;SDS011;62184;52.006;5.924;2022-11-04T13:57:22;19.45;;;12.70;;
73841;SDS011;62184;52.006;5.924;2022-11-04T14:00:17;20.07;;;13.00;;
73841;SDS011;62184;52.006;5.924;2022-11-04T14:02:49;20.95;;;13.30;;
73841;SDS011;62184;52.006;5.924;2022-11-04T14:08:32;19.15;;;12.77;;
73841;SDS011;62184;52.006;5.924;2022-11-04T14:11:01;18.67;;;12.05;;
73841;SDS011;62184;52.006;5.924;2022-11-04T14:16:42;20.23;;;12.45;;
73841;SDS011;62184;52.006;5.924;2022-11-04T14:22:28;18.15;;;12.73;;
73841;SDS011;62184;52.006;5.924;2022-11-04T14:25:21;20.38;;;12.15;;
73841;SDS011;62184;52.006;5.924;2022-11-04T14:27:53;18.37;;;12.10;;
73841;SDS011;62184;52.006;5.924;2022-11-04T14:30:35;18.67;;;11.95;;
73841;SDS011;62184;52.006;5.924;2022-11-04T14:38:54;18.85;;;12.00;;
73841;SDS011;62184;52.006;5.924;2022-11-04T14:41:39;18.25;;;11.35;;
73841;SDS011;62184;52.006;5.924;2022-11-04T14:44:18;17.33;;;11.00;;
73841;SDS011;62184;52.006;5.924;2022-11-04T14:46:53;18.05;;;10.95;;
73841;SDS011;62184;52.006;5.924;2022-11-04T14:49:36;16.48;;;10.77;;
73841;SDS011;62184;52.006;5.924;2022-11-04T14:52:15;14.60;;;9.13;;
73841;SDS011;62184;52.006;5.924;2022-11-04T14:54:48;12.48;;;7.45;;
73841;SDS011;62184;52.006;5.924;2022-11-04T14:57:27;8.57;;;4.82;;
73841;SDS011;62184;52.006;5.924;2022-11-04T15:00:11;5.72;;;2.85;;
73841;SDS011;62184;52.006;5.924;2022-11-04T15:02:45;5.03;;;1.80;;
73841;SDS011;62184;52.006;5.924;2022-11-04T15:05:20;4.10;;;1.45;;
73841;SDS011;62184;52.006;5.924;2022-11-04T15:07:49;4.38;;;1.30;;
73841;SDS011;62184;52.006;5.924;2022-11-04T15:10:19;3.90;;;1.38;;
73841;SDS011;62184;52.006;5.924;2022-11-04T15:12:50;4.53;;;1.35;;
73841;SDS011;62184;52.006;5.924;2022-11-04T15:18:11;5.03;;;1.27;;
73841;SDS011;62184;52.006;5.924;2022-11-04T15:20:44;5.45;;;1.30;;
73841;SDS011;62184;52.006;5.924;2022-11-04T15:23:15;5.07;;;1.40;;